sensor_id;sensor_type;location;lat;lon;timestamp;P1;durP1;ratioP1;P2;durP2;ratioP2
57297;SDS011;43147;50.972;18.210;2023-08-08T00:00:50;7.20;;;2.70;;
57297;SDS011;43147;50.972;18.210;2023-08-08T00:03:16;5.50;;;2.70;;
57297;SDS011;43147;50.972;18.210;2023-08-08T00:05:41;4.00;;;2.60;;
57297;SDS011;43147;50.972;18.210;2023-08-08T00:08:07;5.80;;;2.80;;
57297;SDS011;43147;50.972;18.210;2023-08-08T00:10:32;8.90;;;3.00;;
57297;SDS011;43147;50.972;18.210;2023-08-08T00:12:58;10.70;;;3.10;;
57297;SDS011;43147;50.972;18.210;2023-08-08T00:15:23;12.20;;;3.00;;
57297;SDS011;43147;50.972;18.210;2023-08-08T00:17:49;6.30;;;3.10;;
57297;SDS011;43147;50.972;18.210;2023-08-08T00:20:15;8.10;;;2.70;;
57297;SDS011;43147;50.972;18.210;2023-08-08T00:22:40;5.90;;;3.00;;
57297;SDS011;43147;50.972;18.210;2023-08-08T00:25:06;5.10;;;2.80;;
57297;SDS011;43147;50.972;18.210;2023-08-08T00:27:33;7.30;;;3.00;;
57297;SDS011;43147;50.972;18.210;2023-08-08T00:29:59;4.60;;;1.90;;
57297;SDS011;43147;50.972;18.210;2023-08-08T00:32:25;8.80;;;2.80;;
57297;SDS011;43147;50.972;18.210;2023-08-08T00:34:51;5.20;;;2.80;;
57297;SDS011;43147;50.972;18.210;2023-08-08T00:37:16;8.60;;;3.10;;
57297;SDS011;43147;50.972;18.210;2023-08-08T00:39:42;7.40;;;3.10;;
57297;SDS011;43147;50.972;18.210;2023-08-08T00:42:14;10.60;;;3.40;;
57297;SDS011;43147;50.972;18.210;2023-08-08T00:44:40;7.20;;;3.10;;
57297;SDS011;43147;50.972;18.210;2023-08-08T00:47:07;7.40;;;2.90;;
57297;SDS011;43147;50.972;18.210;2023-08-08T00:49:34;8.80;;;3.10;;
57297;SDS011;43147;50.972;18.210;2023-08-08T00:52:00;8.50;;;2.60;;
57297;SDS011;43147;50.972;18.210;2023-08-08T00:54:26;3.80;;;2.50;;
57297;SDS011;43147;50.972;18.210;2023-08-08T00:56:52;7.00;;;2.90;;
57297;SDS011;43147;50.972;18.210;2023-08-08T00:59:18;6.60;;;2.60;;
57297;SDS011;43147;50.972;18.210;2023-08-08T01:01:45;6.00;;;2.60;;
57297;SDS011;43147;50.972;18.210;2023-08-08T01:04:11;9.20;;;3.30;;
57297;SDS011;43147;50.972;18.210;2023-08-08T01:06:39;5.80;;;2.60;;
57297;SDS011;43147;50.972;18.210;2023-08-08T01:09:21;7.50;;;2.80;;
57297;SDS011;43147;50.972;18.210;2023-08-08T01:11:51;6.10;;;2.90;;
57297;SDS011;43147;50.972;18.210;2023-08-08T01:14:17;9.90;;;3.00;;
57297;SDS011;43147;50.972;18.210;2023-08-08T01:16:44;10.90;;;2.90;;
57297;SDS011;43147;50.972;18.210;2023-08-08T01:19:11;9.00;;;3.50;;
57297;SDS011;43147;50.972;18.210;2023-08-08T01:21:39;8.80;;;3.20;;
57297;SDS011;43147;50.972;18.210;2023-08-08T01:27:02;5.40;;;2.90;;
57297;SDS011;43147;50.972;18.210;2023-08-08T01:29:31;9.80;;;3.40;;
57297;SDS011;43147;50.972;18.210;2023-08-08T01:31:56;5.90;;;3.00;;
57297;SDS011;43147;50.972;18.210;2023-08-08T01:34:22;6.40;;;3.00;;
57297;SDS011;43147;50.972;18.210;2023-08-08T01:39:13;9.50;;;3.20;;
57297;SDS011;43147;50.972;18.210;2023-08-08T01:41:41;6.50;;;2.90;;
57297;SDS011;43147;50.972;18.210;2023-08-08T01:44:07;6.20;;;3.10;;
57297;SDS011;43147;50.972;18.210;2023-08-08T01:46:33;7.40;;;2.70;;
57297;SDS011;43147;50.972;18.210;2023-08-08T01:48:59;5.80;;;3.00;;
57297;SDS011;43147;50.972;18.210;2023-08-08T01:51:25;7.50;;;3.00;;
57297;SDS011;43147;50.972;18.210;2023-08-08T01:53:51;6.90;;;3.00;;
57297;SDS011;43147;50.972;18.210;2023-08-08T01:56:17;6.90;;;3.50;;
57297;SDS011;43147;50.972;18.210;2023-08-08T01:58:43;6.80;;;3.00;;
57297;SDS011;43147;50.972;18.210;2023-08-08T02:01:08;7.30;;;3.70;;
57297;SDS011;43147;50.972;18.210;2023-08-08T02:03:34;9.10;;;2.00;;
57297;SDS011;43147;50.972;18.210;2023-08-08T02:05:59;5.40;;;2.60;;
57297;SDS011;43147;50.972;18.210;2023-08-08T02:08:25;5.20;;;2.20;;
57297;SDS011;43147;50.972;18.210;2023-08-08T02:10:50;5.50;;;2.80;;
57297;SDS011;43147;50.972;18.210;2023-08-08T02:13:16;5.10;;;2.90;;
57297;SDS011;43147;50.972;18.210;2023-08-08T02:15:41;5.60;;;2.80;;
57297;SDS011;43147;50.972;18.210;2023-08-08T02:18:06;8.50;;;2.70;;
57297;SDS011;43147;50.972;18.210;2023-08-08T02:20:34;5.10;;;2.80;;
57297;SDS011;43147;50.972;18.210;2023-08-08T02:23:00;7.90;;;3.00;;
57297;SDS011;43147;50.972;18.210;2023-08-08T02:25:25;4.90;;;2.60;;
57297;SDS011;43147;50.972;18.210;2023-08-08T02:27:51;3.70;;;2.80;;
57297;SDS011;43147;50.972;18.210;2023-08-08T02:30:16;5.10;;;2.90;;
57297;SDS011;43147;50.972;18.210;2023-08-08T02:32:42;2.70;;;1.70;;
57297;SDS011;43147;50.972;18.210;2023-08-08T02:35:08;6.50;;;1.70;;
57297;SDS011;43147;50.972;18.210;2023-08-08T02:37:33;7.10;;;3.30;;
57297;SDS011;43147;50.972;18.210;2023-08-08T02:39:59;5.90;;;3.00;;
57297;SDS011;43147;50.972;18.210;2023-08-08T02:42:24;5.90;;;2.80;;
57297;SDS011;43147;50.972;18.210;2023-08-08T02:44:50;7.90;;;3.00;;
57297;SDS011;43147;50.972;18.210;2023-08-08T02:47:16;3.50;;;1.50;;
57297;SDS011;43147;50.972;18.210;2023-08-08T02:49:41;6.40;;;3.10;;
57297;SDS011;43147;50.972;18.210;2023-08-08T02:52:07;5.00;;;2.10;;
57297;SDS011;43147;50.972;18.210;2023-08-08T02:54:33;4.50;;;3.20;;
57297;SDS011;43147;50.972;18.210;2023-08-08T02:56:58;10.50;;;3.10;;
57297;SDS011;43147;50.972;18.210;2023-08-08T02:59:24;5.10;;;3.10;;
57297;SDS011;43147;50.972;18.210;2023-08-08T03:01:49;6.00;;;3.80;;
57297;SDS011;43147;50.972;18.210;2023-08-08T03:04:15;4.30;;;3.00;;
57297;SDS011;43147;50.972;18.210;2023-08-08T03:06:41;6.30;;;1.60;;
57297;SDS011;43147;50.972;18.210;2023-08-08T03:09:07;6.60;;;3.40;;
57297;SDS011;43147;50.972;18.210;2023-08-08T03:11:33;9.00;;;3.40;;
57297;SDS011;43147;50.972;18.210;2023-08-08T03:13:58;3.80;;;3.20;;
57297;SDS011;43147;50.972;18.210;2023-08-08T03:16:24;4.60;;;2.40;;
57297;SDS011;43147;50.972;18.210;2023-08-08T03:18:49;7.70;;;3.90;;
57297;SDS011;43147;50.972;18.210;2023-08-08T03:21:15;4.30;;;2.00;;
57297;SDS011;43147;50.972;18.210;2023-08-08T03:23:40;6.30;;;2.30;;
57297;SDS011;43147;50.972;18.210;2023-08-08T03:26:06;6.20;;;2.30;;
57297;SDS011;43147;50.972;18.210;2023-08-08T03:28:32;9.30;;;4.10;;
57297;SDS011;43147;50.972;18.210;2023-08-08T03:30:57;7.80;;;3.90;;
57297;SDS011;43147;50.972;18.210;2023-08-08T03:33:23;8.30;;;2.60;;
57297;SDS011;43147;50.972;18.210;2023-08-08T03:35:49;7.70;;;2.90;;
57297;SDS011;43147;50.972;18.210;2023-08-08T03:38:14;9.60;;;4.40;;
57297;SDS011;43147;50.972;18.210;2023-08-08T03:40:40;7.80;;;4.20;;
57297;SDS011;43147;50.972;18.210;2023-08-08T03:43:05;3.10;;;2.10;;
57297;SDS011;43147;50.972;18.210;2023-08-08T03:45:31;8.60;;;4.40;;
57297;SDS011;43147;50.972;18.210;2023-08-08T03:47:57;10.80;;;4.50;;
57297;SDS011;43147;50.972;18.210;2023-08-08T03:50:22;9.60;;;4.60;;
57297;SDS011;43147;50.972;18.210;2023-08-08T03:52:48;6.10;;;2.80;;
57297;SDS011;43147;50.972;18.210;2023-08-08T03:55:14;7.90;;;4.40;;
57297;SDS011;43147;50.972;18.210;2023-08-08T03:57:39;3.40;;;2.40;;
57297;SDS011;43147;50.972;18.210;2023-08-08T04:00:05;8.40;;;4.30;;
57297;SDS011;43147;50.972;18.210;2023-08-08T04:02:33;3.30;;;2.40;;
57297;SDS011;43147;50.972;18.210;2023-08-08T04:04:59;7.60;;;4.20;;
57297;SDS011;43147;50.972;18.210;2023-08-08T04:07:25;5.90;;;4.10;;
57297;SDS011;43147;50.972;18.210;2023-08-08T04:09:51;5.10;;;2.60;;
57297;SDS011;43147;50.972;18.210;2023-08-08T04:12:17;6.70;;;4.10;;
57297;SDS011;43147;50.972;18.210;2023-08-08T04:14:43;7.80;;;3.10;;
57297;SDS011;43147;50.972;18.210;2023-08-08T04:17:08;7.30;;;3.70;;
57297;SDS011;43147;50.972;18.210;2023-08-08T04:19:34;8.20;;;5.00;;
57297;SDS011;43147;50.972;18.210;2023-08-08T04:22:00;8.30;;;4.80;;
57297;SDS011;43147;50.972;18.210;2023-08-08T04:24:25;6.50;;;4.60;;
57297;SDS011;43147;50.972;18.210;2023-08-08T04:26:51;6.50;;;4.70;;
57297;SDS011;43147;50.972;18.210;2023-08-08T04:29:16;9.30;;;4.60;;
57297;SDS011;43147;50.972;18.210;2023-08-08T04:31:42;5.60;;;2.20;;
57297;SDS011;43147;50.972;18.210;2023-08-08T04:34:07;5.80;;;4.50;;
57297;SDS011;43147;50.972;18.210;2023-08-08T04:36:33;9.40;;;3.30;;
57297;SDS011;43147;50.972;18.210;2023-08-08T04:38:59;8.10;;;4.80;;
57297;SDS011;43147;50.972;18.210;2023-08-08T04:41:25;7.00;;;5.20;;
57297;SDS011;43147;50.972;18.210;2023-08-08T04:43:50;5.40;;;3.30;;
57297;SDS011;43147;50.972;18.210;2023-08-08T04:46:16;10.20;;;5.60;;
57297;SDS011;43147;50.972;18.210;2023-08-08T04:48:42;10.30;;;4.80;;
57297;SDS011;43147;50.972;18.210;2023-08-08T04:51:08;10.80;;;4.70;;
57297;SDS011;43147;50.972;18.210;2023-08-08T04:53:34;8.50;;;4.40;;
57297;SDS011;43147;50.972;18.210;2023-08-08T04:55:59;7.70;;;4.70;;
57297;SDS011;43147;50.972;18.210;2023-08-08T04:58:25;9.80;;;4.80;;
57297;SDS011;43147;50.972;18.210;2023-08-08T05:00:51;10.00;;;4.40;;
57297;SDS011;43147;50.972;18.210;2023-08-08T05:03:17;9.70;;;2.90;;
57297;SDS011;43147;50.972;18.210;2023-08-08T05:05:43;6.80;;;3.90;;
57297;SDS011;43147;50.972;18.210;2023-08-08T05:08:13;4.90;;;3.80;;
57297;SDS011;43147;50.972;18.210;2023-08-08T05:10:39;6.20;;;3.60;;
57297;SDS011;43147;50.972;18.210;2023-08-08T05:13:04;8.30;;;4.00;;
57297;SDS011;43147;50.972;18.210;2023-08-08T05:15:30;8.40;;;3.60;;
57297;SDS011;43147;50.972;18.210;2023-08-08T05:17:55;5.80;;;3.50;;
57297;SDS011;43147;50.972;18.210;2023-08-08T05:20:21;8.10;;;4.20;;
57297;SDS011;43147;50.972;18.210;2023-08-08T05:22:47;3.40;;;3.10;;
57297;SDS011;43147;50.972;18.210;2023-08-08T05:25:13;5.20;;;3.70;;
57297;SDS011;43147;50.972;18.210;2023-08-08T05:27:39;6.10;;;3.60;;
57297;SDS011;43147;50.972;18.210;2023-08-08T05:30:05;8.20;;;3.50;;
57297;SDS011;43147;50.972;18.210;2023-08-08T05:32:33;10.30;;;3.40;;
57297;SDS011;43147;50.972;18.210;2023-08-08T05:34:59;4.60;;;2.50;;
57297;SDS011;43147;50.972;18.210;2023-08-08T05:37:26;5.20;;;2.60;;
57297;SDS011;43147;50.972;18.210;2023-08-08T05:39:53;6.10;;;2.30;;
57297;SDS011;43147;50.972;18.210;2023-08-08T05:42:19;3.40;;;2.10;;
57297;SDS011;43147;50.972;18.210;2023-08-08T05:44:44;6.30;;;2.40;;
57297;SDS011;43147;50.972;18.210;2023-08-08T05:47:10;3.20;;;2.30;;
57297;SDS011;43147;50.972;18.210;2023-08-08T05:49:36;4.40;;;2.10;;
57297;SDS011;43147;50.972;18.210;2023-08-08T05:52:03;5.30;;;2.30;;
57297;SDS011;43147;50.972;18.210;2023-08-08T05:54:29;3.50;;;2.00;;
57297;SDS011;43147;50.972;18.210;2023-08-08T05:56:54;2.50;;;1.90;;
57297;SDS011;43147;50.972;18.210;2023-08-08T05:59:20;8.30;;;1.90;;
57297;SDS011;43147;50.972;18.210;2023-08-08T06:01:45;1.90;;;1.20;;
57297;SDS011;43147;50.972;18.210;2023-08-08T06:04:11;5.60;;;1.70;;
57297;SDS011;43147;50.972;18.210;2023-08-08T06:06:37;3.90;;;1.90;;
57297;SDS011;43147;50.972;18.210;2023-08-08T06:09:03;2.90;;;2.30;;
57297;SDS011;43147;50.972;18.210;2023-08-08T06:11:29;2.70;;;1.70;;
57297;SDS011;43147;50.972;18.210;2023-08-08T06:13:54;3.60;;;1.70;;
57297;SDS011;43147;50.972;18.210;2023-08-08T06:16:20;4.80;;;2.20;;
57297;SDS011;43147;50.972;18.210;2023-08-08T06:18:46;3.10;;;1.80;;
57297;SDS011;43147;50.972;18.210;2023-08-08T06:21:12;5.10;;;1.90;;
57297;SDS011;43147;50.972;18.210;2023-08-08T06:23:37;3.40;;;2.00;;
57297;SDS011;43147;50.972;18.210;2023-08-08T06:26:03;3.40;;;1.50;;
57297;SDS011;43147;50.972;18.210;2023-08-08T06:28:29;3.70;;;1.90;;
57297;SDS011;43147;50.972;18.210;2023-08-08T06:30:56;2.30;;;1.50;;
57297;SDS011;43147;50.972;18.210;2023-08-08T06:33:22;4.40;;;1.80;;
57297;SDS011;43147;50.972;18.210;2023-08-08T06:35:49;2.80;;;1.30;;
57297;SDS011;43147;50.972;18.210;2023-08-08T06:38:14;3.70;;;1.20;;
57297;SDS011;43147;50.972;18.210;2023-08-08T06:40:40;5.30;;;1.30;;
57297;SDS011;43147;50.972;18.210;2023-08-08T06:43:06;3.40;;;1.20;;
57297;SDS011;43147;50.972;18.210;2023-08-08T06:45:34;5.20;;;1.60;;
57297;SDS011;43147;50.972;18.210;2023-08-08T06:48:00;2.40;;;1.00;;
57297;SDS011;43147;50.972;18.210;2023-08-08T06:50:26;3.70;;;1.50;;
57297;SDS011;43147;50.972;18.210;2023-08-08T06:52:51;3.80;;;1.20;;
57297;SDS011;43147;50.972;18.210;2023-08-08T06:55:17;8.10;;;1.40;;
57297;SDS011;43147;50.972;18.210;2023-08-08T06:57:43;2.60;;;1.40;;
57297;SDS011;43147;50.972;18.210;2023-08-08T07:00:09;1.50;;;1.20;;
57297;SDS011;43147;50.972;18.210;2023-08-08T07:02:37;3.60;;;1.20;;
57297;SDS011;43147;50.972;18.210;2023-08-08T07:05:03;2.80;;;1.50;;
57297;SDS011;43147;50.972;18.210;2023-08-08T07:07:29;3.50;;;1.30;;
57297;SDS011;43147;50.972;18.210;2023-08-08T07:09:56;4.90;;;1.30;;
57297;SDS011;43147;50.972;18.210;2023-08-08T07:12:22;2.60;;;1.10;;
57297;SDS011;43147;50.972;18.210;2023-08-08T07:14:47;3.10;;;1.20;;
57297;SDS011;43147;50.972;18.210;2023-08-08T07:17:13;3.30;;;1.40;;
57297;SDS011;43147;50.972;18.210;2023-08-08T07:19:40;2.50;;;1.30;;
57297;SDS011;43147;50.972;18.210;2023-08-08T07:22:07;2.10;;;1.20;;
57297;SDS011;43147;50.972;18.210;2023-08-08T07:24:34;3.80;;;1.50;;
57297;SDS011;43147;50.972;18.210;2023-08-08T07:26:59;2.80;;;1.60;;
57297;SDS011;43147;50.972;18.210;2023-08-08T07:29:25;7.00;;;2.30;;
57297;SDS011;43147;50.972;18.210;2023-08-08T07:31:54;4.60;;;1.70;;
57297;SDS011;43147;50.972;18.210;2023-08-08T07:34:20;5.60;;;1.50;;
57297;SDS011;43147;50.972;18.210;2023-08-08T07:36:46;8.00;;;1.80;;
57297;SDS011;43147;50.972;18.210;2023-08-08T07:39:12;6.50;;;2.10;;
57297;SDS011;43147;50.972;18.210;2023-08-08T07:41:37;5.00;;;1.90;;
57297;SDS011;43147;50.972;18.210;2023-08-08T07:44:03;3.10;;;2.00;;
57297;SDS011;43147;50.972;18.210;2023-08-08T07:46:30;7.30;;;1.80;;
57297;SDS011;43147;50.972;18.210;2023-08-08T07:48:55;2.70;;;2.00;;
57297;SDS011;43147;50.972;18.210;2023-08-08T07:51:25;6.00;;;1.80;;
57297;SDS011;43147;50.972;18.210;2023-08-08T07:53:50;4.10;;;1.80;;
57297;SDS011;43147;50.972;18.210;2023-08-08T07:56:16;5.60;;;1.70;;
57297;SDS011;43147;50.972;18.210;2023-08-08T07:58:44;2.70;;;1.30;;
57297;SDS011;43147;50.972;18.210;2023-08-08T08:01:10;4.20;;;1.60;;
57297;SDS011;43147;50.972;18.210;2023-08-08T08:03:37;4.70;;;1.70;;
57297;SDS011;43147;50.972;18.210;2023-08-08T08:06:02;5.10;;;1.50;;
57297;SDS011;43147;50.972;18.210;2023-08-08T08:08:28;3.40;;;1.60;;
57297;SDS011;43147;50.972;18.210;2023-08-08T08:10:54;3.60;;;1.40;;
57297;SDS011;43147;50.972;18.210;2023-08-08T08:13:20;2.50;;;1.60;;
57297;SDS011;43147;50.972;18.210;2023-08-08T08:15:45;5.80;;;2.00;;
57297;SDS011;43147;50.972;18.210;2023-08-08T08:18:11;4.30;;;2.10;;
57297;SDS011;43147;50.972;18.210;2023-08-08T08:20:37;5.50;;;1.70;;
57297;SDS011;43147;50.972;18.210;2023-08-08T08:23:04;6.00;;;1.70;;
57297;SDS011;43147;50.972;18.210;2023-08-08T08:25:30;3.40;;;2.30;;
57297;SDS011;43147;50.972;18.210;2023-08-08T08:27:57;6.80;;;2.30;;
57297;SDS011;43147;50.972;18.210;2023-08-08T08:30:22;4.70;;;2.30;;
57297;SDS011;43147;50.972;18.210;2023-08-08T08:32:50;4.20;;;2.30;;
57297;SDS011;43147;50.972;18.210;2023-08-08T08:35:17;4.30;;;2.30;;
57297;SDS011;43147;50.972;18.210;2023-08-08T08:37:42;2.90;;;2.50;;
57297;SDS011;43147;50.972;18.210;2023-08-08T08:40:09;4.50;;;1.90;;
57297;SDS011;43147;50.972;18.210;2023-08-08T08:42:35;2.60;;;2.00;;
57297;SDS011;43147;50.972;18.210;2023-08-08T08:45:04;2.50;;;2.00;;
57297;SDS011;43147;50.972;18.210;2023-08-08T08:47:31;3.10;;;1.60;;
57297;SDS011;43147;50.972;18.210;2023-08-08T08:49:57;4.20;;;2.20;;
57297;SDS011;43147;50.972;18.210;2023-08-08T08:52:23;3.90;;;1.90;;
57297;SDS011;43147;50.972;18.210;2023-08-08T08:54:52;2.30;;;1.80;;
57297;SDS011;43147;50.972;18.210;2023-08-08T08:57:18;4.50;;;1.70;;
57297;SDS011;43147;50.972;18.210;2023-08-08T08:59:46;3.40;;;1.80;;
57297;SDS011;43147;50.972;18.210;2023-08-08T09:02:12;6.60;;;2.50;;
57297;SDS011;43147;50.972;18.210;2023-08-08T09:04:39;12.50;;;2.20;;
57297;SDS011;43147;50.972;18.210;2023-08-08T09:07:05;17.00;;;2.90;;
57297;SDS011;43147;50.972;18.210;2023-08-08T09:09:32;3.10;;;1.70;;
57297;SDS011;43147;50.972;18.210;2023-08-08T09:11:58;5.60;;;1.50;;
57297;SDS011;43147;50.972;18.210;2023-08-08T09:14:24;3.30;;;1.20;;
57297;SDS011;43147;50.972;18.210;2023-08-08T09:16:52;2.80;;;1.60;;
57297;SDS011;43147;50.972;18.210;2023-08-08T09:19:18;2.50;;;1.50;;
57297;SDS011;43147;50.972;18.210;2023-08-08T09:21:45;3.90;;;1.60;;
57297;SDS011;43147;50.972;18.210;2023-08-08T09:24:12;5.10;;;1.70;;
57297;SDS011;43147;50.972;18.210;2023-08-08T09:26:38;2.40;;;1.60;;
57297;SDS011;43147;50.972;18.210;2023-08-08T09:29:05;3.00;;;1.70;;
57297;SDS011;43147;50.972;18.210;2023-08-08T09:31:31;2.70;;;1.70;;
57297;SDS011;43147;50.972;18.210;2023-08-08T09:34:00;3.00;;;2.00;;
57297;SDS011;43147;50.972;18.210;2023-08-08T09:36:27;2.70;;;1.80;;
57297;SDS011;43147;50.972;18.210;2023-08-08T09:38:53;4.20;;;2.00;;
57297;SDS011;43147;50.972;18.210;2023-08-08T09:41:20;5.80;;;2.10;;
57297;SDS011;43147;50.972;18.210;2023-08-08T09:43:49;5.40;;;3.00;;
57297;SDS011;43147;50.972;18.210;2023-08-08T09:46:16;3.60;;;1.70;;
57297;SDS011;43147;50.972;18.210;2023-08-08T09:48:42;4.20;;;2.10;;
57297;SDS011;43147;50.972;18.210;2023-08-08T09:51:09;3.60;;;2.10;;
57297;SDS011;43147;50.972;18.210;2023-08-08T09:53:35;2.20;;;1.60;;
57297;SDS011;43147;50.972;18.210;2023-08-08T09:56:04;2.80;;;1.80;;
57297;SDS011;43147;50.972;18.210;2023-08-08T09:58:31;1.70;;;1.30;;
57297;SDS011;43147;50.972;18.210;2023-08-08T10:00:57;3.60;;;1.60;;
57297;SDS011;43147;50.972;18.210;2023-08-08T10:03:24;10.40;;;5.10;;
57297;SDS011;43147;50.972;18.210;2023-08-08T10:05:49;5.00;;;3.90;;
57297;SDS011;43147;50.972;18.210;2023-08-08T10:08:15;2.20;;;1.90;;
57297;SDS011;43147;50.972;18.210;2023-08-08T10:10:41;4.20;;;2.90;;
57297;SDS011;43147;50.972;18.210;2023-08-08T10:13:09;5.30;;;3.10;;
57297;SDS011;43147;50.972;18.210;2023-08-08T10:15:38;5.20;;;2.50;;
57297;SDS011;43147;50.972;18.210;2023-08-08T10:18:05;4.50;;;2.60;;
57297;SDS011;43147;50.972;18.210;2023-08-08T10:20:31;1.50;;;1.40;;
57297;SDS011;43147;50.972;18.210;2023-08-08T10:23:02;3.00;;;1.10;;
57297;SDS011;43147;50.972;18.210;2023-08-08T10:25:29;2.10;;;1.40;;
57297;SDS011;43147;50.972;18.210;2023-08-08T10:28:06;2.70;;;1.40;;
57297;SDS011;43147;50.972;18.210;2023-08-08T10:30:49;1.90;;;1.50;;
57297;SDS011;43147;50.972;18.210;2023-08-08T10:33:22;3.60;;;1.60;;
57297;SDS011;43147;50.972;18.210;2023-08-08T10:35:56;3.40;;;1.50;;
57297;SDS011;43147;50.972;18.210;2023-08-08T10:38:24;2.90;;;1.20;;
57297;SDS011;43147;50.972;18.210;2023-08-08T10:41:01;3.00;;;1.00;;
57297;SDS011;43147;50.972;18.210;2023-08-08T10:43:28;1.80;;;1.30;;
57297;SDS011;43147;50.972;18.210;2023-08-08T10:45:58;1.80;;;1.10;;
57297;SDS011;43147;50.972;18.210;2023-08-08T10:48:27;4.10;;;1.50;;
57297;SDS011;43147;50.972;18.210;2023-08-08T10:50:59;3.70;;;1.20;;
57297;SDS011;43147;50.972;18.210;2023-08-08T10:53:29;2.20;;;1.20;;
57297;SDS011;43147;50.972;18.210;2023-08-08T10:55:58;1.90;;;1.10;;
57297;SDS011;43147;50.972;18.210;2023-08-08T10:58:34;4.50;;;1.30;;
57297;SDS011;43147;50.972;18.210;2023-08-08T11:01:04;1.20;;;1.00;;
57297;SDS011;43147;50.972;18.210;2023-08-08T11:03:37;1.30;;;1.20;;
57297;SDS011;43147;50.972;18.210;2023-08-08T11:06:07;2.30;;;1.20;;
57297;SDS011;43147;50.972;18.210;2023-08-08T11:08:34;1.50;;;1.00;;
57297;SDS011;43147;50.972;18.210;2023-08-08T11:11:01;5.00;;;1.30;;
57297;SDS011;43147;50.972;18.210;2023-08-08T11:13:27;3.30;;;1.10;;
57297;SDS011;43147;50.972;18.210;2023-08-08T11:15:53;3.60;;;1.10;;
57297;SDS011;43147;50.972;18.210;2023-08-08T11:18:19;3.00;;;1.50;;
57297;SDS011;43147;50.972;18.210;2023-08-08T11:20:44;1.40;;;1.10;;
57297;SDS011;43147;50.972;18.210;2023-08-08T11:23:10;2.20;;;1.30;;
57297;SDS011;43147;50.972;18.210;2023-08-08T11:25:39;4.00;;;1.60;;
57297;SDS011;43147;50.972;18.210;2023-08-08T11:28:07;1.70;;;1.10;;
57297;SDS011;43147;50.972;18.210;2023-08-08T11:30:37;2.40;;;1.20;;
57297;SDS011;43147;50.972;18.210;2023-08-08T11:33:04;1.20;;;1.00;;
57297;SDS011;43147;50.972;18.210;2023-08-08T11:35:30;2.30;;;1.20;;
57297;SDS011;43147;50.972;18.210;2023-08-08T11:37:56;3.70;;;1.20;;
57297;SDS011;43147;50.972;18.210;2023-08-08T11:40:23;4.20;;;1.60;;
57297;SDS011;43147;50.972;18.210;2023-08-08T11:42:51;1.90;;;1.20;;
57297;SDS011;43147;50.972;18.210;2023-08-08T11:45:17;2.60;;;1.50;;
57297;SDS011;43147;50.972;18.210;2023-08-08T11:47:43;2.00;;;1.20;;
57297;SDS011;43147;50.972;18.210;2023-08-08T11:50:10;2.20;;;1.20;;
57297;SDS011;43147;50.972;18.210;2023-08-08T11:52:40;1.50;;;1.20;;
57297;SDS011;43147;50.972;18.210;2023-08-08T11:55:08;4.00;;;1.40;;
57297;SDS011;43147;50.972;18.210;2023-08-08T11:57:38;1.80;;;1.20;;
57297;SDS011;43147;50.972;18.210;2023-08-08T12:00:08;1.20;;;1.00;;
57297;SDS011;43147;50.972;18.210;2023-08-08T12:02:38;1.40;;;1.20;;
57297;SDS011;43147;50.972;18.210;2023-08-08T12:05:05;1.20;;;1.00;;
57297;SDS011;43147;50.972;18.210;2023-08-08T12:07:37;1.40;;;1.10;;
57297;SDS011;43147;50.972;18.210;2023-08-08T12:10:13;2.00;;;1.20;;
57297;SDS011;43147;50.972;18.210;2023-08-08T12:15:05;2.50;;;0.90;;
57297;SDS011;43147;50.972;18.210;2023-08-08T12:17:31;1.70;;;1.40;;
57297;SDS011;43147;50.972;18.210;2023-08-08T12:20:00;1.70;;;1.30;;
57297;SDS011;43147;50.972;18.210;2023-08-08T12:22:26;2.40;;;0.90;;
57297;SDS011;43147;50.972;18.210;2023-08-08T12:24:52;1.70;;;1.40;;
57297;SDS011;43147;50.972;18.210;2023-08-08T12:27:17;2.00;;;1.20;;
57297;SDS011;43147;50.972;18.210;2023-08-08T12:29:43;1.30;;;1.10;;
57297;SDS011;43147;50.972;18.210;2023-08-08T12:32:09;2.10;;;1.20;;
57297;SDS011;43147;50.972;18.210;2023-08-08T12:34:35;1.80;;;1.20;;
57297;SDS011;43147;50.972;18.210;2023-08-08T12:37:01;1.50;;;1.10;;
57297;SDS011;43147;50.972;18.210;2023-08-08T12:39:28;1.40;;;1.20;;
57297;SDS011;43147;50.972;18.210;2023-08-08T12:41:54;1.30;;;1.00;;
57297;SDS011;43147;50.972;18.210;2023-08-08T12:44:20;2.10;;;1.40;;
57297;SDS011;43147;50.972;18.210;2023-08-08T12:46:45;1.60;;;1.20;;
57297;SDS011;43147;50.972;18.210;2023-08-08T12:49:11;1.50;;;1.10;;
57297;SDS011;43147;50.972;18.210;2023-08-08T12:51:37;5.00;;;1.70;;
57297;SDS011;43147;50.972;18.210;2023-08-08T12:54:03;2.80;;;1.40;;
57297;SDS011;43147;50.972;18.210;2023-08-08T12:56:28;2.10;;;1.50;;
57297;SDS011;43147;50.972;18.210;2023-08-08T12:58:54;2.90;;;1.50;;
57297;SDS011;43147;50.972;18.210;2023-08-08T13:01:20;5.00;;;1.40;;
57297;SDS011;43147;50.972;18.210;2023-08-08T13:03:45;3.10;;;1.60;;
57297;SDS011;43147;50.972;18.210;2023-08-08T13:06:11;3.40;;;1.50;;
57297;SDS011;43147;50.972;18.210;2023-08-08T13:08:38;3.10;;;1.30;;
57297;SDS011;43147;50.972;18.210;2023-08-08T13:11:04;2.20;;;1.50;;
57297;SDS011;43147;50.972;18.210;2023-08-08T13:13:30;3.20;;;1.80;;
57297;SDS011;43147;50.972;18.210;2023-08-08T13:15:56;2.80;;;1.30;;
57297;SDS011;43147;50.972;18.210;2023-08-08T13:18:24;2.40;;;1.50;;
57297;SDS011;43147;50.972;18.210;2023-08-08T13:20:50;2.40;;;1.20;;
57297;SDS011;43147;50.972;18.210;2023-08-08T13:23:15;3.30;;;1.40;;
57297;SDS011;43147;50.972;18.210;2023-08-08T13:25:41;4.20;;;1.70;;
57297;SDS011;43147;50.972;18.210;2023-08-08T13:28:08;1.90;;;1.40;;
57297;SDS011;43147;50.972;18.210;2023-08-08T13:30:34;2.50;;;1.40;;
57297;SDS011;43147;50.972;18.210;2023-08-08T13:33:00;2.20;;;1.30;;
57297;SDS011;43147;50.972;18.210;2023-08-08T13:35:26;1.60;;;1.30;;
57297;SDS011;43147;50.972;18.210;2023-08-08T13:37:52;2.00;;;1.30;;
57297;SDS011;43147;50.972;18.210;2023-08-08T13:40:20;1.60;;;1.30;;
57297;SDS011;43147;50.972;18.210;2023-08-08T13:42:45;3.40;;;1.30;;
57297;SDS011;43147;50.972;18.210;2023-08-08T13:45:13;2.00;;;1.60;;
57297;SDS011;43147;50.972;18.210;2023-08-08T13:47:40;1.30;;;1.10;;
57297;SDS011;43147;50.972;18.210;2023-08-08T13:50:06;1.90;;;1.40;;
57297;SDS011;43147;50.972;18.210;2023-08-08T13:52:33;1.80;;;1.50;;
57297;SDS011;43147;50.972;18.210;2023-08-08T13:54:59;3.80;;;1.40;;
57297;SDS011;43147;50.972;18.210;2023-08-08T13:57:25;4.40;;;1.60;;
57297;SDS011;43147;50.972;18.210;2023-08-08T13:59:50;1.90;;;1.30;;
57297;SDS011;43147;50.972;18.210;2023-08-08T14:02:16;2.00;;;1.20;;
57297;SDS011;43147;50.972;18.210;2023-08-08T14:04:45;2.10;;;1.20;;
57297;SDS011;43147;50.972;18.210;2023-08-08T14:07:11;2.90;;;1.40;;
57297;SDS011;43147;50.972;18.210;2023-08-08T14:09:37;3.70;;;1.60;;
57297;SDS011;43147;50.972;18.210;2023-08-08T14:12:03;2.10;;;1.30;;
57297;SDS011;43147;50.972;18.210;2023-08-08T14:14:29;2.10;;;1.30;;
57297;SDS011;43147;50.972;18.210;2023-08-08T14:16:54;1.90;;;1.40;;
57297;SDS011;43147;50.972;18.210;2023-08-08T14:19:20;3.70;;;2.70;;
57297;SDS011;43147;50.972;18.210;2023-08-08T14:25:00;3.80;;;2.20;;
57297;SDS011;43147;50.972;18.210;2023-08-08T14:27:27;1.40;;;1.20;;
57297;SDS011;43147;50.972;18.210;2023-08-08T14:29:52;1.80;;;1.20;;
57297;SDS011;43147;50.972;18.210;2023-08-08T14:32:18;2.30;;;1.30;;
57297;SDS011;43147;50.972;18.210;2023-08-08T14:34:44;5.50;;;2.30;;
57297;SDS011;43147;50.972;18.210;2023-08-08T14:37:09;5.40;;;2.00;;
57297;SDS011;43147;50.972;18.210;2023-08-08T14:39:36;3.60;;;1.70;;